createdAt,value
2023-03-31T00:00:27.866Z,97494.91
2023-03-31T00:02:59.071Z,97489.81
2023-03-31T00:05:29.874Z,97496.06
2023-03-31T00:08:02.233Z,97485.13
2023-03-31T00:10:34.259Z,97482.59
2023-03-31T00:13:07.260Z,97477.34
2023-03-31T00:15:37.596Z,97470.88
2023-03-31T00:18:08.408Z,97472.25
2023-03-31T00:20:38.456Z,97469.31
2023-03-31T00:23:11.374Z,97462.31
2023-03-31T00:25:43.960Z,97461.13
2023-03-31T00:28:16.553Z,97450.38
2023-03-31T00:30:47.554Z,97449.22
2023-03-31T00:33:17.771Z,97448.81
2023-03-31T00:35:48.199Z,97440.22
2023-03-31T00:38:18.269Z,97433.97
2023-03-31T00:40:53.840Z,97429.09
2023-03-31T00:43:35.126Z,97427.72
2023-03-31T00:46:13.899Z,97436.31
2023-03-31T00:48:49.545Z,97423.59
2023-03-31T00:51:21.636Z,97422.59
2023-03-31T00:53:58.013Z,97419.44
2023-03-31T00:56:30.842Z,97407.09
2023-03-31T00:59:07.916Z,97411.97
2023-03-31T01:01:39.852Z,97403.72
2023-03-31T01:04:10.845Z,97406.06
2023-03-31T01:06:47.510Z,97414.50
2023-03-31T01:09:20.730Z,97408.00
2023-03-31T01:11:51.606Z,97399.78
2023-03-31T01:14:24.533Z,97393.91
2023-03-31T01:16:54.912Z,97377.63
2023-03-31T01:19:36.699Z,97379.97
2023-03-31T01:22:49.951Z,97367.22
2023-03-31T01:25:51.574Z,97355.78
2023-03-31T01:28:31.160Z,97356.78
2023-03-31T01:31:41.112Z,97366.81
2023-03-31T01:34:31.545Z,97351.19
2023-03-31T01:37:28.930Z,97354.84
2023-03-31T01:40:26.045Z,97357.06
2023-03-31T01:43:01.490Z,97354.31
2023-03-31T01:45:43.402Z,97356.28
2023-03-31T01:48:18.906Z,97354.44
2023-03-31T01:50:52.320Z,97358.94
2023-03-31T01:53:30.361Z,97351.50
2023-03-31T01:56:08.884Z,97358.34
2023-03-31T01:58:42.450Z,97370.31
2023-03-31T02:01:21.222Z,97375.69
2023-03-31T02:03:57.006Z,97375.31
2023-03-31T02:06:32.121Z,97383.78
2023-03-31T02:09:06.897Z,97375.19
2023-03-31T02:11:42.160Z,97367.75
2023-03-31T02:14:18.965Z,97368.13
2023-03-31T02:16:52.602Z,97367.75
2023-03-31T02:19:24.805Z,97367.78
2023-03-31T02:21:57.155Z,97357.78
2023-03-31T02:24:31.162Z,97355.84
2023-03-31T02:27:09.396Z,97357.25
2023-03-31T02:29:40.153Z,97347.06
2023-03-31T02:32:19.331Z,97337.69
2023-03-31T02:34:49.810Z,97338.47
2023-03-31T02:37:20.764Z,97332.63
2023-03-31T02:39:55.615Z,97320.13
2023-03-31T02:42:28.727Z,97312.31
2023-03-31T02:45:05.245Z,97300.63
2023-03-31T02:47:36.498Z,97278.69
2023-03-31T02:50:08.176Z,97263.44
2023-03-31T02:52:53.562Z,97247.38
2023-03-31T02:55:38.155Z,97227.78
2023-03-31T02:58:52.702Z,97228.84
2023-03-31T03:01:45.218Z,97230.22
2023-03-31T03:04:34.303Z,97221.22
2023-03-31T03:07:13.864Z,97202.84
2023-03-31T03:09:52.557Z,97195.22
2023-03-31T03:12:28.354Z,97178.38
2023-03-31T03:15:06.405Z,97169.50
2023-03-31T03:17:42.139Z,97165.78
2023-03-31T03:20:14.203Z,97155.84
2023-03-31T03:22:44.266Z,97149.63
2023-03-31T03:25:17.390Z,97149.28
2023-03-31T03:27:47.761Z,97132.13
2023-03-31T03:30:20.697Z,97123.56
2023-03-31T03:32:51.028Z,97125.00
2023-03-31T03:35:21.689Z,97120.91
2023-03-31T03:37:52.134Z,97118.00
2023-03-31T03:40:22.537Z,97107.25
2023-03-31T03:42:52.699Z,97103.34
2023-03-31T03:45:25.870Z,97093.16
2023-03-31T03:47:56.111Z,97097.47
2023-03-31T03:50:26.432Z,97097.28
2023-03-31T03:52:56.925Z,97076.34
2023-03-31T03:55:29.183Z,97074.19
2023-03-31T03:57:59.118Z,97072.78
2023-03-31T04:00:32.063Z,97072.78
2023-03-31T04:03:02.370Z,97052.44
2023-03-31T04:05:32.385Z,97046.41
2023-03-31T04:08:03.118Z,97045.84
2023-03-31T04:10:33.385Z,97043.91
2023-03-31T04:13:03.924Z,97029.28
2023-03-31T04:15:36.835Z,97016.31
2023-03-31T04:18:11.675Z,97019.81
2023-03-31T04:20:42.748Z,97004.06
2023-03-31T04:23:15.309Z,96988.25
2023-03-31T04:25:46.818Z,96974.63
2023-03-31T04:28:17.350Z,96977.75
2023-03-31T04:30:50.099Z,96978.69
2023-03-31T04:33:20.387Z,96964.44
2023-03-31T04:35:53.447Z,96963.25
2023-03-31T04:38:27.515Z,96969.06
2023-03-31T04:40:58.486Z,96971.00
2023-03-31T04:43:28.682Z,96966.31
2023-03-31T04:46:01.833Z,96970.38
2023-03-31T04:48:31.941Z,96972.88
2023-03-31T04:51:02.262Z,96964.44
2023-03-31T04:53:32.436Z,96959.28
2023-03-31T04:56:02.913Z,96949.72
2023-03-31T04:58:32.836Z,96953.94
2023-03-31T05:01:06.610Z,96960.56
2023-03-31T05:03:37.418Z,96950.78
2023-03-31T05:06:09.183Z,96959.31
2023-03-31T05:08:39.601Z,96951.28
2023-03-31T05:11:09.658Z,96944.25
2023-03-31T05:13:39.632Z,96929.06
2023-03-31T05:16:15.062Z,96932.97
2023-03-31T05:18:45.183Z,96936.78
2023-03-31T05:21:17.762Z,96945.81
2023-03-31T05:23:48.889Z,96945.50
2023-03-31T05:26:19.163Z,96963.69
2023-03-31T05:28:51.824Z,96973.28
2023-03-31T05:31:25.475Z,96988.09
2023-03-31T05:33:55.482Z,96984.00
2023-03-31T05:36:27.405Z,96989.59
2023-03-31T05:38:58.655Z,96989.75
2023-03-31T05:41:28.974Z,96991.81
2023-03-31T05:43:58.945Z,96988.47
2023-03-31T05:46:31.611Z,96973.44
2023-03-31T05:49:03.223Z,96960.56
2023-03-31T05:51:33.261Z,96959.03
2023-03-31T05:54:03.456Z,96950.66
2023-03-31T05:56:33.815Z,96939.09
2023-03-31T05:59:05.327Z,96928.91
2023-03-31T06:01:38.142Z,96918.41
2023-03-31T06:07:17.970Z,96916.53
2023-03-31T06:09:48.563Z,96913.41
2023-03-31T06:12:19.161Z,96898.31
2023-03-31T06:14:49.124Z,96898.66
2023-03-31T06:17:22.115Z,96890.97
2023-03-31T06:19:52.083Z,96887.72
2023-03-31T06:22:22.064Z,96890.22
2023-03-31T06:24:52.050Z,96882.03
2023-03-31T06:27:22.166Z,96870.03
2023-03-31T06:29:52.499Z,96877.25
2023-03-31T06:32:25.035Z,96867.91
2023-03-31T06:34:55.141Z,96863.66
2023-03-31T06:37:25.125Z,96867.19
2023-03-31T06:39:55.905Z,96876.44
2023-03-31T06:42:26.274Z,96868.81
2023-03-31T06:44:56.361Z,96868.47
2023-03-31T06:47:30.293Z,96878.91
2023-03-31T06:50:00.241Z,96882.63
2023-03-31T06:52:30.309Z,96890.47
2023-03-31T06:55:01.886Z,96896.13
2023-03-31T06:57:37.378Z,96906.44
2023-03-31T07:00:08.943Z,96923.31
2023-03-31T07:02:41.658Z,96941.28
2023-03-31T07:05:13.009Z,96939.88
2023-03-31T07:07:46.200Z,96958.47
2023-03-31T07:10:16.844Z,96971.84
2023-03-31T07:12:48.351Z,96987.09
2023-03-31T07:15:21.085Z,97000.44
2023-03-31T07:18:03.567Z,96973.88
2023-03-31T07:20:35.040Z,96939.06
2023-03-31T07:23:08.874Z,96920.50
2023-03-31T07:25:40.883Z,96940.75
2023-03-31T07:28:11.438Z,96930.50
2023-03-31T07:30:45.307Z,96817.31
2023-03-31T07:33:18.277Z,96858.59
2023-03-31T07:35:59.958Z,96892.06
2023-03-31T07:38:40.446Z,96896.25
2023-03-31T07:41:13.760Z,96896.44
2023-03-31T07:43:46.383Z,96900.09
2023-03-31T07:46:21.969Z,96889.22
2023-03-31T07:48:55.579Z,96896.97
2023-03-31T07:51:29.131Z,96895.84
2023-03-31T07:53:59.081Z,96889.09
2023-03-31T07:56:32.031Z,96879.78
2023-03-31T07:59:03.259Z,96878.31
2023-03-31T08:01:34.510Z,96871.28
2023-03-31T08:04:08.578Z,96865.38
2023-03-31T08:06:40.327Z,96866.41
2023-03-31T08:09:11.291Z,96860.19
2023-03-31T08:11:41.309Z,96853.63
2023-03-31T08:14:12.090Z,96852.06
2023-03-31T08:16:42.298Z,96851.09
2023-03-31T08:19:15.433Z,96853.00
2023-03-31T08:21:45.634Z,96857.22
2023-03-31T08:24:16.063Z,96857.53
2023-03-31T08:26:46.522Z,96858.25
2023-03-31T08:29:16.682Z,96843.78
2023-03-31T08:31:46.881Z,96846.94
2023-03-31T08:34:20.490Z,96843.41
2023-03-31T08:36:50.974Z,96843.69
2023-03-31T08:39:21.370Z,96841.75
2023-03-31T08:42:00.217Z,96840.97
2023-03-31T08:44:37.544Z,96841.56
2023-03-31T08:47:13.155Z,96823.56
2023-03-31T08:49:51.245Z,96829.09
2023-03-31T08:52:28.679Z,96823.22
2023-03-31T08:55:00.310Z,96841.28
2023-03-31T08:57:34.981Z,96835.13
2023-03-31T09:00:07.406Z,96821.16
2023-03-31T09:02:49.388Z,96817.53
2023-03-31T09:05:59.657Z,96814.69
2023-03-31T09:08:36.570Z,96809.28
2023-03-31T09:11:17.734Z,96808.94
2023-03-31T09:14:05.097Z,96809.75
2023-03-31T09:16:38.979Z,96790.50
2023-03-31T09:19:17.132Z,96795.25
2023-03-31T09:21:52.591Z,96779.22
2023-03-31T09:24:29.806Z,96769.88
2023-03-31T09:27:04.436Z,96766.38
2023-03-31T09:29:44.338Z,96762.94
2023-03-31T09:32:19.523Z,96774.22
2023-03-31T09:34:53.380Z,96757.47
2023-03-31T09:37:28.370Z,96767.16
2023-03-31T09:39:58.622Z,96771.97
2023-03-31T09:42:29.107Z,96766.09
2023-03-31T09:44:59.204Z,96764.13
2023-03-31T09:47:35.824Z,96768.25
2023-03-31T09:50:06.737Z,96775.94
2023-03-31T09:52:42.722Z,96764.56
2023-03-31T09:55:38.307Z,96771.84
2023-03-31T09:58:10.397Z,96752.09
2023-03-31T10:00:45.242Z,96742.41
2023-03-31T10:03:18.276Z,96752.84
2023-03-31T10:05:54.398Z,96742.88
2023-03-31T10:08:31.912Z,96733.38
2023-03-31T10:11:11.912Z,96726.28
2023-03-31T10:13:48.770Z,96722.00
2023-03-31T10:16:31.212Z,96713.53
2023-03-31T10:19:16.223Z,96711.69
2023-03-31T10:21:49.361Z,96704.31
2023-03-31T10:24:24.347Z,96702.19
2023-03-31T10:26:57.430Z,96703.31
2023-03-31T10:29:34.271Z,96696.50
2023-03-31T10:32:11.862Z,96688.41
2023-03-31T10:34:45.926Z,96704.53
2023-03-31T10:37:20.659Z,96691.78
2023-03-31T10:40:00.809Z,96680.25
2023-03-31T10:42:31.649Z,96676.63
2023-03-31T10:45:26.356Z,96676.81
2023-03-31T10:48:04.459Z,96682.09
2023-03-31T10:50:36.542Z,96674.69
2023-03-31T10:53:09.057Z,96685.44
2023-03-31T10:55:48.739Z,96667.97
2023-03-31T10:58:34.862Z,96665.69
2023-03-31T11:01:17.607Z,96660.34
2023-03-31T11:04:09.621Z,96662.19
2023-03-31T11:06:54.694Z,96652.53
2023-03-31T11:09:41.221Z,96651.16
2023-03-31T11:12:21.042Z,96656.16
2023-03-31T11:15:02.737Z,96635.41
2023-03-31T11:17:44.997Z,96652.06
2023-03-31T11:20:24.216Z,96624.88
2023-03-31T11:23:02.117Z,96671.13
2023-03-31T11:25:42.276Z,96700.88
2023-03-31T11:28:30.639Z,96739.78
2023-03-31T11:31:12.624Z,96849.03
2023-03-31T11:33:59.970Z,96843.72
2023-03-31T11:36:49.684Z,96851.34
2023-03-31T11:39:36.181Z,96821.53
2023-03-31T11:42:11.499Z,96817.44
2023-03-31T11:44:48.136Z,96827.25
2023-03-31T11:47:22.712Z,96813.56
2023-03-31T11:49:59.310Z,96819.00
2023-03-31T11:52:33.229Z,96798.47
2023-03-31T11:55:09.268Z,96801.97
2023-03-31T11:57:44.669Z,96802.81
2023-03-31T12:00:23.149Z,96802.56
2023-03-31T12:02:59.000Z,96803.28
2023-03-31T12:05:32.064Z,96794.78
2023-03-31T12:08:08.544Z,96781.81
2023-03-31T12:10:41.373Z,96779.97
2023-03-31T12:13:34.071Z,96793.59
2023-03-31T12:16:12.786Z,96782.72
2023-03-31T12:18:49.953Z,96764.88
2023-03-31T12:21:20.766Z,96753.84
2023-03-31T12:23:54.349Z,96750.97
2023-03-31T12:26:36.817Z,96769.34
2023-03-31T12:29:25.303Z,96773.81
2023-03-31T12:32:01.723Z,96771.66
2023-03-31T12:34:33.138Z,96762.38
2023-03-31T12:37:28.846Z,96756.41
2023-03-31T12:40:13.800Z,96721.31
2023-03-31T12:43:03.905Z,96708.81
2023-03-31T12:45:37.226Z,96717.06
2023-03-31T12:48:34.299Z,96704.50
2023-03-31T12:51:24.234Z,96699.03
2023-03-31T12:54:10.860Z,96688.22
2023-03-31T12:57:17.552Z,96675.66
2023-03-31T12:59:48.596Z,96694.34
2023-03-31T13:02:26.782Z,96678.91
2023-03-31T13:04:59.700Z,96683.75
2023-03-31T13:07:44.392Z,96677.75
2023-03-31T13:10:31.289Z,96670.41
2023-03-31T13:13:07.696Z,96680.69
2023-03-31T13:15:38.104Z,96689.19
2023-03-31T13:18:10.652Z,96685.69
2023-03-31T13:20:43.966Z,96676.69
2023-03-31T13:23:23.015Z,96666.06
2023-03-31T13:25:54.749Z,96660.59
2023-03-31T13:28:47.086Z,96676.38
2023-03-31T13:31:18.085Z,96667.13
2023-03-31T13:33:57.917Z,96683.69
2023-03-31T13:37:01.972Z,96681.50
2023-03-31T13:40:08.375Z,96670.50
2023-03-31T13:43:11.050Z,96707.75
2023-03-31T13:45:57.546Z,96712.53
2023-03-31T13:49:03.117Z,96739.88
2023-03-31T13:51:44.381Z,96762.34
2023-03-31T13:54:59.231Z,96781.88
2023-03-31T13:58:03.285Z,96748.44
2023-03-31T14:00:43.190Z,96749.69
2023-03-31T14:03:20.580Z,96723.34
2023-03-31T14:05:53.783Z,96696.59
2023-03-31T14:08:32.793Z,96694.31
2023-03-31T14:11:18.906Z,96683.16
2023-03-31T14:14:04.616Z,96678.50
2023-03-31T14:16:37.826Z,96668.91
2023-03-31T14:19:18.971Z,96674.19
2023-03-31T14:21:53.398Z,96667.34
2023-03-31T14:24:29.399Z,96680.63
2023-03-31T14:27:03.942Z,96670.00
2023-03-31T14:29:41.228Z,96665.31
2023-03-31T14:32:16.486Z,96686.41
2023-03-31T14:34:59.083Z,96683.16
2023-03-31T14:37:31.079Z,96685.81
2023-03-31T14:40:01.751Z,96673.72
2023-03-31T14:42:35.286Z,96679.97
2023-03-31T14:45:11.611Z,96685.00
2023-03-31T14:47:42.315Z,96683.44
2023-03-31T14:50:16.473Z,96684.44
2023-03-31T14:52:49.805Z,96676.38
2023-03-31T14:55:22.569Z,96687.34
2023-03-31T14:57:56.649Z,96683.41
2023-03-31T15:00:32.207Z,96668.19
2023-03-31T15:03:03.993Z,96669.28
2023-03-31T15:05:36.039Z,96654.16
2023-03-31T15:08:08.294Z,96661.47
2023-03-31T15:10:40.381Z,96636.66
2023-03-31T15:13:11.788Z,96646.28
2023-03-31T15:15:46.414Z,96641.72
2023-03-31T15:18:17.898Z,96634.56
2023-03-31T15:20:49.238Z,96626.50
2023-03-31T15:23:25.273Z,96629.06
2023-03-31T15:25:59.217Z,96634.19
2023-03-31T15:28:31.738Z,96621.88
2023-03-31T15:31:10.573Z,96628.97
2023-03-31T15:33:43.005Z,96635.19
2023-03-31T15:36:14.160Z,96631.00
2023-03-31T15:38:45.244Z,96631.53
2023-03-31T15:41:17.090Z,96639.34
2023-03-31T15:43:51.333Z,96640.56
2023-03-31T15:46:28.543Z,96634.97
2023-03-31T15:48:59.504Z,96637.81
2023-03-31T15:51:32.848Z,96637.44
2023-03-31T15:54:05.715Z,96642.41
2023-03-31T15:56:38.492Z,96648.00
2023-03-31T15:59:09.265Z,96644.78
2023-03-31T16:01:46.156Z,96626.06
2023-03-31T16:04:17.676Z,96635.44
2023-03-31T16:06:49.385Z,96633.19
2023-03-31T16:09:22.059Z,96630.22
2023-03-31T16:11:54.187Z,96631.53
2023-03-31T16:14:26.740Z,96637.63
2023-03-31T16:17:05.317Z,96637.13
2023-03-31T16:19:44.341Z,96651.53
2023-03-31T16:22:20.537Z,96645.25
2023-03-31T16:24:51.669Z,96647.03
2023-03-31T16:27:22.149Z,96661.66
2023-03-31T16:29:52.264Z,96663.66
2023-03-31T16:32:24.903Z,96667.66
2023-03-31T16:34:56.868Z,96681.66
2023-03-31T16:37:28.469Z,96675.38
2023-03-31T16:39:59.394Z,96654.88
2023-03-31T16:42:30.364Z,96683.28
2023-03-31T16:45:13.807Z,96682.25
2023-03-31T16:47:47.223Z,96680.94
2023-03-31T16:50:17.504Z,96678.31
2023-03-31T16:52:47.930Z,96659.22
2023-03-31T16:55:18.151Z,96661.78
2023-03-31T16:57:48.929Z,96650.03
2023-03-31T17:00:20.731Z,96653.34
2023-03-31T17:02:53.870Z,96648.81
2023-03-31T17:05:24.086Z,96639.66
2023-03-31T17:07:54.194Z,96630.78
2023-03-31T17:10:24.526Z,96631.66
2023-03-31T17:12:55.148Z,96630.44
2023-03-31T17:15:25.559Z,96644.88
2023-03-31T17:17:59.186Z,96643.34
2023-03-31T17:20:29.507Z,96657.81
2023-03-31T17:22:59.759Z,96663.78
2023-03-31T17:25:30.455Z,96673.38
2023-03-31T17:28:01.737Z,96671.91
2023-03-31T17:30:32.023Z,96664.13
2023-03-31T17:33:05.666Z,96662.22
2023-03-31T17:35:36.448Z,96666.06
2023-03-31T17:38:07.368Z,96665.03
2023-03-31T17:40:38.404Z,96668.44
2023-03-31T17:43:09.105Z,96669.66
2023-03-31T17:45:39.520Z,96669.78
2023-03-31T17:48:13.105Z,96662.16
2023-03-31T17:50:43.215Z,96667.81
2023-03-31T17:53:13.548Z,96661.06
2023-03-31T17:55:44.189Z,96667.25
2023-03-31T17:58:19.294Z,96665.72
2023-03-31T18:00:49.913Z,96663.72
2023-03-31T18:03:22.608Z,96666.06
2023-03-31T18:05:53.089Z,96676.31
2023-03-31T18:08:23.645Z,96689.00
2023-03-31T18:10:54.171Z,96704.69
2023-03-31T18:13:24.701Z,96702.81
2023-03-31T18:15:55.881Z,96692.56
2023-03-31T18:18:29.735Z,96698.88
2023-03-31T18:21:00.523Z,96711.03
2023-03-31T18:23:30.948Z,96703.78
2023-03-31T18:26:01.162Z,96710.44
2023-03-31T18:28:31.760Z,96717.16
2023-03-31T18:31:06.397Z,96715.25
2023-03-31T18:33:40.579Z,96706.56
2023-03-31T18:36:13.478Z,96712.78
2023-03-31T18:38:44.008Z,96709.06
2023-03-31T18:41:14.874Z,96716.69
2023-03-31T18:43:45.339Z,96716.50
2023-03-31T18:46:15.760Z,96717.16
2023-03-31T18:48:49.564Z,96718.97
2023-03-31T18:51:20.427Z,96716.53
2023-03-31T18:53:50.972Z,96712.28
2023-03-31T18:56:23.435Z,96712.69
2023-03-31T18:58:54.149Z,96714.41
2023-03-31T19:01:24.494Z,96713.44
2023-03-31T19:03:57.702Z,96719.22
2023-03-31T19:06:27.818Z,96726.56
2023-03-31T19:08:58.914Z,96720.72
2023-03-31T19:11:29.406Z,96724.19
2023-03-31T19:13:59.586Z,96725.59
2023-03-31T19:16:30.220Z,96728.50
2023-03-31T19:19:04.454Z,96731.63
2023-03-31T19:21:36.664Z,96720.66
2023-03-31T19:24:10.163Z,96724.19
2023-03-31T19:26:40.579Z,96718.47
2023-03-31T19:29:10.674Z,96712.25
2023-03-31T19:31:42.002Z,96708.94
2023-03-31T19:34:16.942Z,96726.50
2023-03-31T19:36:47.424Z,96719.31
2023-03-31T19:39:18.625Z,96717.94
2023-03-31T19:41:49.242Z,96717.75
2023-03-31T19:44:19.302Z,96721.47
2023-03-31T19:46:49.728Z,96719.53
2023-03-31T19:49:22.924Z,96716.47
2023-03-31T19:51:53.547Z,96708.66
2023-03-31T19:54:23.581Z,96715.13
2023-03-31T19:56:53.720Z,96712.75
2023-03-31T19:59:23.690Z,96705.72
2023-03-31T20:01:54.195Z,96711.00
2023-03-31T20:04:27.145Z,96704.00
2023-03-31T20:06:58.512Z,96710.63
2023-03-31T20:09:29.484Z,96710.22
2023-03-31T20:11:59.690Z,96714.13
2023-03-31T20:14:30.882Z,96714.94
2023-03-31T20:17:03.627Z,96713.94
2023-03-31T20:19:36.740Z,96717.66
2023-03-31T20:22:07.321Z,96722.91
2023-03-31T20:24:38.708Z,96726.03
2023-03-31T20:27:09.200Z,96730.44
2023-03-31T20:29:39.353Z,96735.81
2023-03-31T20:32:10.034Z,96737.09
2023-03-31T20:34:42.915Z,96741.44
2023-03-31T20:37:13.369Z,96737.66
2023-03-31T20:39:44.850Z,96736.19
2023-03-31T20:42:14.935Z,96727.44
2023-03-31T20:44:45.205Z,96733.91
2023-03-31T20:47:15.979Z,96728.88
2023-03-31T20:49:49.230Z,96727.94
2023-03-31T20:52:19.446Z,96728.91
2023-03-31T20:54:49.541Z,96734.97
2023-03-31T20:57:19.942Z,96735.09
2023-03-31T20:59:50.093Z,96730.41
2023-03-31T21:02:20.171Z,96730.00
2023-03-31T21:04:53.322Z,96734.66
2023-03-31T21:07:23.480Z,96735.78
2023-03-31T21:09:53.613Z,96740.66
2023-03-31T21:12:23.954Z,96735.38
2023-03-31T21:14:54.487Z,96737.28
2023-03-31T21:17:24.874Z,96736.09
2023-03-31T21:19:57.746Z,96748.22
2023-03-31T21:22:27.853Z,96743.25
2023-03-31T21:25:01.286Z,96750.84
2023-03-31T21:27:32.267Z,96758.69
2023-03-31T21:30:02.930Z,96743.88
2023-03-31T21:32:33.246Z,96748.19
2023-03-31T21:35:06.611Z,96746.59
2023-03-31T21:37:37.408Z,96756.47
2023-03-31T21:40:08.694Z,96749.00
2023-03-31T21:42:39.150Z,96754.66
2023-03-31T21:45:11.437Z,96756.38
2023-03-31T21:47:41.732Z,96758.88
2023-03-31T21:50:15.130Z,96765.50
2023-03-31T21:52:45.166Z,96764.31
2023-03-31T21:55:15.384Z,96753.16
2023-03-31T21:57:45.619Z,96761.94
2023-03-31T22:00:17.024Z,96771.44
2023-03-31T22:02:47.490Z,96776.50
2023-03-31T22:05:20.358Z,96772.78
2023-03-31T22:07:51.198Z,96771.56
2023-03-31T22:10:21.562Z,96767.78
2023-03-31T22:12:51.850Z,96768.28
2023-03-31T22:15:23.035Z,96765.69
2023-03-31T22:17:53.198Z,96776.63
2023-03-31T22:20:26.769Z,96779.00
2023-03-31T22:22:57.920Z,96776.63
2023-03-31T22:25:28.406Z,96771.16
2023-03-31T22:27:58.701Z,96773.91
2023-03-31T22:30:28.944Z,96778.22
2023-03-31T22:32:59.095Z,96766.72
2023-03-31T22:35:32.565Z,96777.81
2023-03-31T22:38:03.410Z,96772.78
2023-03-31T22:40:34.195Z,96779.44
2023-03-31T22:43:05.259Z,96781.41
2023-03-31T22:45:35.335Z,96778.09
2023-03-31T22:48:05.703Z,96779.28
2023-03-31T22:50:38.777Z,96774.47
2023-03-31T22:53:10.369Z,96779.94
2023-03-31T22:55:44.309Z,96764.69
2023-03-31T22:58:25.852Z,96765.06
2023-03-31T23:00:59.941Z,96768.97
2023-03-31T23:03:31.116Z,96772.13
2023-03-31T23:06:05.490Z,96765.88
2023-03-31T23:08:37.229Z,96771.34
2023-03-31T23:11:09.187Z,96762.78
2023-03-31T23:13:39.439Z,96760.22
2023-03-31T23:16:11.778Z,96762.53
2023-03-31T23:18:46.224Z,96753.03
2023-03-31T23:21:23.038Z,96758.69
2023-03-31T23:23:53.958Z,96760.84
2023-03-31T23:26:26.519Z,96760.44
2023-03-31T23:28:57.651Z,96758.66
2023-03-31T23:31:30.578Z,96761.00
2023-03-31T23:34:01.494Z,96761.41
2023-03-31T23:36:35.015Z,96765.88
2023-03-31T23:39:06.858Z,96764.50
2023-03-31T23:41:37.100Z,96754.19
2023-03-31T23:44:07.718Z,96756.53
2023-03-31T23:46:39.865Z,96758.50
2023-03-31T23:49:09.907Z,96755.00
2023-03-31T23:51:43.009Z,96759.28
2023-03-31T23:54:13.363Z,96747.22
2023-03-31T23:56:43.707Z,96748.19
2023-03-31T23:59:14.077Z,96745.25
